Sincerity Ace — 3FFD7 — position and weather

sailwx.info

Track history (hours):
 
Tides and Currents Weather Stations Pressure Air Temp Water Temp Dewpoint Dewpoint Depression Visibility Wind Speed Wind Dir Waves Ship Positions

Sincerity Ace

Last reported at 2016-Apr-26 12:18 UTC. Time now 2016-May-03 12:34 UTC.
Position N 49°50' W 004°26'.

Length 200 m; draft 8.8 m.

Type: Cargo ship. MMSI: 351690000.

Date/timePositionNaut miles runAvg speedWind from/ knotsBaromVisibWave heightAir tempDewpointWater temp
2016-Apr-26 12:18N 49°50' W 004°26'1316.1
2016-Apr-26 11:29N 49°55' W 004°08'1415.5
2016-Apr-26 10:33N 50°02' W 003°48'1514.5
2016-Apr-26 09:34N 50°09' W 003°28'1414.2
2016-Apr-26 08:33N 50°23' W 003°26'6 6.4
2016-Apr-26 07:33N 50°26' W 003°17'1110.9
2016-Apr-26 06:33N 50°25' W 002°60'1615.6
2016-Apr-26 05:33N 50°24' W 002°36'2317.6
2016-Apr-26 04:15N 50°24' W 001°59'4917.7
2016-Apr-26 01:29N 50°27' W 000°43'1415.0
2016-Apr-26 00:33N 50°30' W 000°22'1414.2
2016-Apr-25 23:33N 50°33' E 000°00'1313.5
2016-Apr-25 22:33N 50°36' E 000°21'3015.0
2016-Apr-25 20:33N 50°48' E 001°04'1717.4
2016-Apr-25 19:33N 50°59' E 001°25'1716.8
2016-Apr-25 18:33N 51°12' E 001°43'1515.1
2016-Apr-25 17:33N 51°24' E 001°58'1313.1
2016-Apr-25 16:34N 51°20' E 002°18'1413.6
2016-Apr-25 15:30N 51°22' E 002°41'1111.9
2016-Apr-25 14:34N 51°23' E 002°59'9 9.3
2016-Apr-25 13:33N 51°20' E 003°13'0 0.3
2016-Apr-25 12:33N 51°20' E 003°13'1 0.6
2016-Apr-25 11:32N 51°19' E 003°13'0 0.0
2016-Apr-25 10:32N 51°19' E 003°13'0 0.0
2016-Apr-25 09:32N 51°19' E 003°13'0 0.0
2016-Apr-25 08:32N 51°19' E 003°13'0 0.0
2016-Apr-25 07:29N 51°19' E 003°13'0 0.0
2016-Apr-25 06:32N 51°19' E 003°13'0 0.0
2016-Apr-25 05:29N 51°19' E 003°13'0 0.0
2016-Apr-25 04:32N 51°19' E 003°13'0 0.0
2016-Apr-25 03:32N 51°19' E 003°13'0 0.0
2016-Apr-25 02:29N 51°19' E 003°13'0 0.0
2016-Apr-25 01:26N 51°19' E 003°13'0 0.0
2016-Apr-25 00:32N 51°19' E 003°13'0 0.0
2016-Apr-24 23:32N 51°19' E 003°13'0 0.0
2016-Apr-24 22:26N 51°19' E 003°13'0 0.0
2016-Apr-24 21:29N 51°19' E 003°13'0 0.0
2016-Apr-24 20:29N 51°19' E 003°13'0 0.0
2016-Apr-24 19:29N 51°19' E 003°13'0 0.0
2016-Apr-24 18:32N 51°19' E 003°13'0 0.0
2016-Apr-24 17:32N 51°19' E 003°13'0 0.0
2016-Apr-24 16:32N 51°19' E 003°13'0 0.0
2016-Apr-24 15:32N 51°19' E 003°13'0 0.0
2016-Apr-24 14:32N 51°19' E 003°13'0 0.0
2016-Apr-24 13:32N 51°19' E 003°13'0 0.0
2016-Apr-24 12:32N 51°19' E 003°13'0 0.0
2016-Apr-24 11:23N 51°19' E 003°13'0 0.0
2016-Apr-24 10:32N 51°19' E 003°13'0 0.0
2016-Apr-24 09:29N 51°19' E 003°13'0 0.0
2016-Apr-24 08:29N 51°19' E 003°13'0 0.0
2016-Apr-24 07:32N 51°19' E 003°13'0 0.0
2016-Apr-24 06:29N 51°19' E 003°13'0 0.0
2016-Apr-24 05:32N 51°19' E 003°13'0 0.1
2016-Apr-24 04:33N 51°19' E 003°13'1 0.7
2016-Apr-24 03:28N 51°20' E 003°13'4 4.0
2016-Apr-24 02:33N 51°23' E 003°09'9 9.1
2016-Apr-24 01:33N 51°25' E 002°55'8 8.0
2016-Apr-24 00:33N 51°27' E 002°43'2 1.9
2016-Apr-23 23:26N 51°28' E 002°40'6 6.2
2016-Apr-23 22:32N 51°33' E 002°43'44716.5
2016-Apr-22 19:22N 57°49' E 009°44'1618.0
2016-Apr-22 18:28N 57°50' E 010°14'1617.8
2016-Apr-22 17:33N 57°50' E 010°44'1717.3
2016-Apr-22 16:33N 57°42' E 011°12'1514.8
2016-Apr-22 15:33N 57°34' E 011°36'1615.6
2016-Apr-22 14:33N 57°19' E 011°39'1717.4
2016-Apr-22 13:33N 57°01' E 011°44'1817.9
2016-Apr-22 12:33N 56°45' E 011°55'1717.4
2016-Apr-22 11:33N 56°28' E 012°05'1818.0
2016-Apr-22 10:33N 56°13' E 012°23'1615.9
2016-Apr-22 09:34N 56°01' E 012°41'1211.9
2016-Apr-22 08:34N 55°49' E 012°47'1212.0
2016-Apr-22 07:34N 55°39' E 012°57'2 1.8
2016-Apr-22 06:33N 55°37' E 012°60'0 0.0
2016-Apr-22 05:33N 55°37' E 012°60'0 0.0
2016-Apr-22 04:30N 55°37' E 012°60'0 0.0
2016-Apr-22 03:33N 55°37' E 012°60'0 0.0
2016-Apr-22 02:33N 55°37' E 012°60'0 0.0
2016-Apr-22 01:33N 55°37' E 012°60'0 0.0
2016-Apr-22 00:33N 55°37' E 012°60'0 0.0
2016-Apr-21 23:33N 55°37' E 012°60'0 0.0
2016-Apr-21 22:33N 55°37' E 012°60'0 0.0
2016-Apr-21 21:33N 55°37' E 012°60'0 0.0
2016-Apr-21 20:33N 55°37' E 012°60'0 0.0
2016-Apr-21 19:33N 55°37' E 012°60'0 0.0
2016-Apr-21 18:33N 55°37' E 012°60'0 0.0
2016-Apr-21 17:33N 55°37' E 012°60'0 0.0
2016-Apr-21 16:33N 55°37' E 012°60'0 0.0
2016-Apr-21 15:33N 55°37' E 012°60'0 0.0
2016-Apr-21 14:33N 55°37' E 012°60'0 0.0
2016-Apr-21 13:33N 55°37' E 012°60'0 0.0
2016-Apr-21 12:33N 55°37' E 012°60'0 0.0
2016-Apr-21 11:33N 55°37' E 012°60'0 0.0
2016-Apr-21 10:33N 55°37' E 012°60'0 0.0
2016-Apr-21 09:30N 55°37' E 012°60'0 0.0
2016-Apr-21 08:33N 55°37' E 012°60'0 0.0
2016-Apr-21 07:33N 55°37' E 012°60'0 0.0
2016-Apr-21 06:33N 55°37' E 012°60'0 0.0
2016-Apr-21 05:33N 55°37' E 012°60'0 0.0
2016-Apr-21 04:33N 55°37' E 012°60'0 0.0
2016-Apr-21 03:33N 55°37' E 012°60'0 0.0
2016-Apr-21 02:33N 55°37' E 012°60'0 0.0
2016-Apr-21 01:33N 55°37' E 012°60'0 0.0
2016-Apr-21 00:33N 55°37' E 012°60'0 0.0
2016-Apr-20 23:33N 55°37' E 012°60'0 0.0
2016-Apr-20 22:33N 55°37' E 012°60'0 0.0
2016-Apr-20 21:33N 55°37' E 012°60'0 0.2
2016-Apr-20 20:33N 55°37' E 012°59'8 7.6
2016-Apr-20 19:33N 55°44' E 012°53'1414.0
2016-Apr-20 18:33N 55°57' E 012°43'1313.2
2016-Apr-20 17:33N 56°08' E 012°29'1312.9
2016-Apr-20 16:33N 56°15' E 012°10'1616.1
2016-Apr-20 15:33N 56°30' E 011°58'1717.2
2016-Apr-20 14:33N 56°47' E 011°50'1717.2
2016-Apr-20 13:33N 57°03' E 011°40'1716.9
2016-Apr-20 12:33N 57°19' E 011°32'1616.2
2016-Apr-20 11:33N 57°35' E 011°31'1413.8
2016-Apr-20 10:34N 57°44' E 011°11'1818.1
2016-Apr-20 09:34N 57°48' E 010°38'1918.6
2016-Apr-20 08:34N 57°46' E 010°03'27715.2
2016-Apr-19 14:20N 54°14' E 004°46'1215.6
2016-Apr-19 13:33N 54°02' E 004°40'16216.2
2016-Apr-19 03:31N 51°36' E 002°43'1212.9
2016-Apr-19 02:34N 51°24' E 002°47'1414.2
2016-Apr-19 01:34N 51°23' E 003°10'4 3.6
2016-Apr-19 00:33N 51°20' E 003°13'2 2.0
2016-Apr-18 23:30N 51°18' E 003°14'0 0.0
2016-Apr-18 22:33N 51°18' E 003°14'0 0.0
2016-Apr-18 21:24N 51°18' E 003°14'0 0.0
2016-Apr-18 20:30N 51°18' E 003°14'0 0.0
2016-Apr-18 19:30N 51°18' E 003°14'0 0.0
2016-Apr-18 18:30N 51°18' E 003°14'0 0.0
2016-Apr-18 17:30N 51°18' E 003°14'0 0.0
2016-Apr-18 16:24N 51°18' E 003°14'0 0.0
2016-Apr-18 15:33N 51°18' E 003°14'0 0.0
2016-Apr-18 14:33N 51°18' E 003°14'0 0.0
2016-Apr-18 13:30N 51°18' E 003°14'0 0.0
2016-Apr-18 12:33N 51°18' E 003°14'0 0.0
2016-Apr-18 11:30N 51°18' E 003°14'2 1.9
2016-Apr-18 10:34N 51°20' E 003°13'2 1.5
2016-Apr-18 09:33N 51°21' E 003°12'1211.8
2016-Apr-18 08:33N 51°22' E 002°53'1413.7
2016-Apr-18 07:30N 51°22' E 002°30'1616.8
2016-Apr-18 06:33N 51°14' E 002°08'1616.4
2016-Apr-18 05:34N 51°05' E 001°46'1616.3
2016-Apr-18 04:33N 50°53' E 001°29'1615.5
2016-Apr-18 03:33N 50°39' E 001°19'3517.3
2016-Apr-18 01:33N 50°27' E 000°28'1717.2
2016-Apr-18 00:33N 50°22' E 000°02'1716.9
2016-Apr-17 23:33N 50°20' W 000°25'3516.5
2016-Apr-17 21:27N 50°21' W 001°19'4318.3
2016-Apr-17 19:04N 50°23' W 002°27'1019.4
2016-Apr-17 18:34N 50°23' W 002°43'1918.6
2016-Apr-17 17:33N 50°24' W 003°12'9 8.6
2016-Apr-17 16:33N 50°23' W 003°25'9 8.7
2016-Apr-17 15:33N 50°14' W 003°26'1110.7
2016-Apr-17 14:34N 50°05' W 003°34'1111.5
2016-Apr-17 13:34N 49°57' W 003°47'1514.0
2016-Apr-17 12:30N 49°48' W 004°05'8016.2
2016-Apr-17 07:32N 48°50' W 005°30'  
Track history (hours):
 
Tides and Currents Weather Stations Pressure Air Temp Water Temp Dewpoint Dewpoint Depression Visibility Wind Speed Wind Dir Waves Ship Positions

Sincerity Ace

Last reported at 2016-Apr-26 12:18 UTC. Time now 2016-May-03 12:34 UTC.
Position N 49°50' W 004°26'.

Length 200 m; draft 8.8 m.

Type: Cargo ship. MMSI: 351690000.

Date/timePositionNaut miles runAvg speedWind from/ knotsBaromVisibWave heightAir tempDewpointWater temp
2016-Apr-26 12:18N 49°50' W 004°26'1316.1
2016-Apr-26 11:29N 49°55' W 004°08'1415.5
2016-Apr-26 10:33N 50°02' W 003°48'1514.5
2016-Apr-26 09:34N 50°09' W 003°28'1414.2
2016-Apr-26 08:33N 50°23' W 003°26'6 6.4
2016-Apr-26 07:33N 50°26' W 003°17'1110.9
2016-Apr-26 06:33N 50°25' W 002°60'1615.6
2016-Apr-26 05:33N 50°24' W 002°36'2317.6
2016-Apr-26 04:15N 50°24' W 001°59'4917.7
2016-Apr-26 01:29N 50°27' W 000°43'1415.0
2016-Apr-26 00:33N 50°30' W 000°22'1414.2
2016-Apr-25 23:33N 50°33' E 000°00'1313.5
2016-Apr-25 22:33N 50°36' E 000°21'3015.0
2016-Apr-25 20:33N 50°48' E 001°04'1717.4
2016-Apr-25 19:33N 50°59' E 001°25'1716.8
2016-Apr-25 18:33N 51°12' E 001°43'1515.1
2016-Apr-25 17:33N 51°24' E 001°58'1313.1
2016-Apr-25 16:34N 51°20' E 002°18'1413.6
2016-Apr-25 15:30N 51°22' E 002°41'1111.9
2016-Apr-25 14:34N 51°23' E 002°59'9 9.3
2016-Apr-25 13:33N 51°20' E 003°13'0 0.3
2016-Apr-25 12:33N 51°20' E 003°13'1 0.6
2016-Apr-25 11:32N 51°19' E 003°13'0 0.0
2016-Apr-25 10:32N 51°19' E 003°13'0 0.0
2016-Apr-25 09:32N 51°19' E 003°13'0 0.0
2016-Apr-25 08:32N 51°19' E 003°13'0 0.0
2016-Apr-25 07:29N 51°19' E 003°13'0 0.0
2016-Apr-25 06:32N 51°19' E 003°13'0 0.0
2016-Apr-25 05:29N 51°19' E 003°13'0 0.0
2016-Apr-25 04:32N 51°19' E 003°13'0 0.0
2016-Apr-25 03:32N 51°19' E 003°13'0 0.0
2016-Apr-25 02:29N 51°19' E 003°13'0 0.0
2016-Apr-25 01:26N 51°19' E 003°13'0 0.0
2016-Apr-25 00:32N 51°19' E 003°13'0 0.0
2016-Apr-24 23:32N 51°19' E 003°13'0 0.0
2016-Apr-24 22:26N 51°19' E 003°13'0 0.0
2016-Apr-24 21:29N 51°19' E 003°13'0 0.0
2016-Apr-24 20:29N 51°19' E 003°13'0 0.0
2016-Apr-24 19:29N 51°19' E 003°13'0 0.0
2016-Apr-24 18:32N 51°19' E 003°13'0 0.0
2016-Apr-24 17:32N 51°19' E 003°13'0 0.0
2016-Apr-24 16:32N 51°19' E 003°13'0 0.0
2016-Apr-24 15:32N 51°19' E 003°13'0 0.0
2016-Apr-24 14:32N 51°19' E 003°13'0 0.0
2016-Apr-24 13:32N 51°19' E 003°13'0 0.0
2016-Apr-24 12:32N 51°19' E 003°13'0 0.0
2016-Apr-24 11:23N 51°19' E 003°13'0 0.0
2016-Apr-24 10:32N 51°19' E 003°13'0 0.0
2016-Apr-24 09:29N 51°19' E 003°13'0 0.0
2016-Apr-24 08:29N 51°19' E 003°13'0 0.0
2016-Apr-24 07:32N 51°19' E 003°13'0 0.0
2016-Apr-24 06:29N 51°19' E 003°13'0 0.0
2016-Apr-24 05:32N 51°19' E 003°13'0 0.1
2016-Apr-24 04:33N 51°19' E 003°13'1 0.7
2016-Apr-24 03:28N 51°20' E 003°13'4 4.0
2016-Apr-24 02:33N 51°23' E 003°09'9 9.1
2016-Apr-24 01:33N 51°25' E 002°55'8 8.0
2016-Apr-24 00:33N 51°27' E 002°43'2 1.9
2016-Apr-23 23:26N 51°28' E 002°40'6 6.2
2016-Apr-23 22:32N 51°33' E 002°43'44716.5
2016-Apr-22 19:22N 57°49' E 009°44'1618.0
2016-Apr-22 18:28N 57°50' E 010°14'1617.8
2016-Apr-22 17:33N 57°50' E 010°44'1717.3
2016-Apr-22 16:33N 57°42' E 011°12'1514.8
2016-Apr-22 15:33N 57°34' E 011°36'1615.6
2016-Apr-22 14:33N 57°19' E 011°39'1717.4
2016-Apr-22 13:33N 57°01' E 011°44'1817.9
2016-Apr-22 12:33N 56°45' E 011°55'1717.4
2016-Apr-22 11:33N 56°28' E 012°05'1818.0
2016-Apr-22 10:33N 56°13' E 012°23'1615.9
2016-Apr-22 09:34N 56°01' E 012°41'1211.9
2016-Apr-22 08:34N 55°49' E 012°47'1212.0
2016-Apr-22 07:34N 55°39' E 012°57'2 1.8
2016-Apr-22 06:33N 55°37' E 012°60'0 0.0
2016-Apr-22 05:33N 55°37' E 012°60'0 0.0
2016-Apr-22 04:30N 55°37' E 012°60'0 0.0
2016-Apr-22 03:33N 55°37' E 012°60'0 0.0
2016-Apr-22 02:33N 55°37' E 012°60'0 0.0
2016-Apr-22 01:33N 55°37' E 012°60'0 0.0
2016-Apr-22 00:33N 55°37' E 012°60'0 0.0
2016-Apr-21 23:33N 55°37' E 012°60'0 0.0
2016-Apr-21 22:33N 55°37' E 012°60'0 0.0
2016-Apr-21 21:33N 55°37' E 012°60'0 0.0
2016-Apr-21 20:33N 55°37' E 012°60'0 0.0
2016-Apr-21 19:33N 55°37' E 012°60'0 0.0
2016-Apr-21 18:33N 55°37' E 012°60'0 0.0
2016-Apr-21 17:33N 55°37' E 012°60'0 0.0
2016-Apr-21 16:33N 55°37' E 012°60'0 0.0
2016-Apr-21 15:33N 55°37' E 012°60'0 0.0
2016-Apr-21 14:33N 55°37' E 012°60'0 0.0
2016-Apr-21 13:33N 55°37' E 012°60'0 0.0
2016-Apr-21 12:33N 55°37' E 012°60'0 0.0
2016-Apr-21 11:33N 55°37' E 012°60'0 0.0
2016-Apr-21 10:33N 55°37' E 012°60'0 0.0
2016-Apr-21 09:30N 55°37' E 012°60'0 0.0
2016-Apr-21 08:33N 55°37' E 012°60'0 0.0
2016-Apr-21 07:33N 55°37' E 012°60'0 0.0
2016-Apr-21 06:33N 55°37' E 012°60'0 0.0
2016-Apr-21 05:33N 55°37' E 012°60'0 0.0
2016-Apr-21 04:33N 55°37' E 012°60'0 0.0
2016-Apr-21 03:33N 55°37' E 012°60'0 0.0
2016-Apr-21 02:33N 55°37' E 012°60'0 0.0
2016-Apr-21 01:33N 55°37' E 012°60'0 0.0
2016-Apr-21 00:33N 55°37' E 012°60'0 0.0
2016-Apr-20 23:33N 55°37' E 012°60'0 0.0
2016-Apr-20 22:33N 55°37' E 012°60'0 0.0
2016-Apr-20 21:33N 55°37' E 012°60'0 0.2
2016-Apr-20 20:33N 55°37' E 012°59'8 7.6
2016-Apr-20 19:33N 55°44' E 012°53'1414.0
2016-Apr-20 18:33N 55°57' E 012°43'1313.2
2016-Apr-20 17:33N 56°08' E 012°29'1312.9
2016-Apr-20 16:33N 56°15' E 012°10'1616.1
2016-Apr-20 15:33N 56°30' E 011°58'1717.2
2016-Apr-20 14:33N 56°47' E 011°50'1717.2
2016-Apr-20 13:33N 57°03' E 011°40'1716.9
2016-Apr-20 12:33N 57°19' E 011°32'1616.2
2016-Apr-20 11:33N 57°35' E 011°31'1413.8
2016-Apr-20 10:34N 57°44' E 011°11'1818.1
2016-Apr-20 09:34N 57°48' E 010°38'1918.6
2016-Apr-20 08:34N 57°46' E 010°03'27715.2
2016-Apr-19 14:20N 54°14' E 004°46'1215.6
2016-Apr-19 13:33N 54°02' E 004°40'16216.2
2016-Apr-19 03:31N 51°36' E 002°43'1212.9
2016-Apr-19 02:34N 51°24' E 002°47'1414.2
2016-Apr-19 01:34N 51°23' E 003°10'4 3.6
2016-Apr-19 00:33N 51°20' E 003°13'2 2.0
2016-Apr-18 23:30N 51°18' E 003°14'0 0.0
2016-Apr-18 22:33N 51°18' E 003°14'0 0.0
2016-Apr-18 21:24N 51°18' E 003°14'0 0.0
2016-Apr-18 20:30N 51°18' E 003°14'0 0.0
2016-Apr-18 19:30N 51°18' E 003°14'0 0.0
2016-Apr-18 18:30N 51°18' E 003°14'0 0.0
2016-Apr-18 17:30N 51°18' E 003°14'0 0.0
2016-Apr-18 16:24N 51°18' E 003°14'0 0.0
2016-Apr-18 15:33N 51°18' E 003°14'0 0.0
2016-Apr-18 14:33N 51°18' E 003°14'0 0.0
2016-Apr-18 13:30N 51°18' E 003°14'0 0.0
2016-Apr-18 12:33N 51°18' E 003°14'0 0.0
2016-Apr-18 11:30N 51°18' E 003°14'2 1.9
2016-Apr-18 10:34N 51°20' E 003°13'2 1.5
2016-Apr-18 09:33N 51°21' E 003°12'1211.8
2016-Apr-18 08:33N 51°22' E 002°53'1413.7
2016-Apr-18 07:30N 51°22' E 002°30'1616.8
2016-Apr-18 06:33N 51°14' E 002°08'1616.4
2016-Apr-18 05:34N 51°05' E 001°46'1616.3
2016-Apr-18 04:33N 50°53' E 001°29'1615.5
2016-Apr-18 03:33N 50°39' E 001°19'3517.3
2016-Apr-18 01:33N 50°27' E 000°28'1717.2
2016-Apr-18 00:33N 50°22' E 000°02'1716.9
2016-Apr-17 23:33N 50°20' W 000°25'3516.5
2016-Apr-17 21:27N 50°21' W 001°19'4318.3
2016-Apr-17 19:04N 50°23' W 002°27'1019.4
2016-Apr-17 18:34N 50°23' W 002°43'1918.6
2016-Apr-17 17:33N 50°24' W 003°12'9 8.6
2016-Apr-17 16:33N 50°23' W 003°25'9 8.7
2016-Apr-17 15:33N 50°14' W 003°26'1110.7
2016-Apr-17 14:34N 50°05' W 003°34'1111.5
2016-Apr-17 13:34N 49°57' W 003°47'1514.0
2016-Apr-17 12:30N 49°48' W 004°05'8016.2
2016-Apr-17 07:32N 48°50' W 005°30'  

Dump ship's entire track history